sensor_id;sensor_type;location;lat;lon;timestamp;pressure;altitude;pressure_sealevel;temperature;humidity
26823;BME280;14852;51.910;8.878;2023-08-20T00:01:04;100248.81;;;24.33;62.86
26823;BME280;14852;51.910;8.878;2023-08-20T00:03:30;100252.13;;;24.35;62.61
26823;BME280;14852;51.910;8.878;2023-08-20T00:05:56;100252.63;;;24.39;62.79
26823;BME280;14852;51.910;8.878;2023-08-20T00:08:22;100247.72;;;24.44;62.79
26823;BME280;14852;51.910;8.878;2023-08-20T00:10:48;100250.41;;;24.52;63.81
26823;BME280;14852;51.910;8.878;2023-08-20T00:13:14;100257.41;;;24.61;63.46
26823;BME280;14852;51.910;8.878;2023-08-20T00:15:40;100252.47;;;24.66;63.62
26823;BME280;14852;51.910;8.878;2023-08-20T00:18:06;100257.97;;;24.73;63.51
26823;BME280;14852;51.910;8.878;2023-08-20T00:20:33;100263.66;;;24.78;63.13
26823;BME280;14852;51.910;8.878;2023-08-20T00:22:59;100266.66;;;24.83;63.32
26823;BME280;14852;51.910;8.878;2023-08-20T00:25:25;100268.16;;;24.85;63.53
26823;BME280;14852;51.910;8.878;2023-08-20T00:27:51;100267.84;;;24.88;64.14
26823;BME280;14852;51.910;8.878;2023-08-20T00:30:17;100265.72;;;24.92;63.70
26823;BME280;14852;51.910;8.878;2023-08-20T00:32:42;100270.72;;;24.95;64.17
26823;BME280;14852;51.910;8.878;2023-08-20T00:35:08;100274.91;;;24.98;63.96
26823;BME280;14852;51.910;8.878;2023-08-20T00:37:35;100273.75;;;25.00;63.74
26823;BME280;14852;51.910;8.878;2023-08-20T00:40:02;100275.25;;;25.03;64.11
26823;BME280;14852;51.910;8.878;2023-08-20T00:42:30;100285.72;;;25.04;64.30
26823;BME280;14852;51.910;8.878;2023-08-20T00:44:56;100282.91;;;25.06;64.27
26823;BME280;14852;51.910;8.878;2023-08-20T00:47:22;100291.56;;;25.08;63.91
26823;BME280;14852;51.910;8.878;2023-08-20T00:49:48;100281.75;;;25.08;64.54
26823;BME280;14852;51.910;8.878;2023-08-20T00:52:16;100285.91;;;25.11;64.45
26823;BME280;14852;51.910;8.878;2023-08-20T00:54:45;100288.06;;;25.15;64.09
26823;BME280;14852;51.910;8.878;2023-08-20T00:57:14;100282.59;;;25.17;64.44
26823;BME280;14852;51.910;8.878;2023-08-20T00:59:43;100284.09;;;25.19;64.03
26823;BME280;14852;51.910;8.878;2023-08-20T01:02:10;100274.31;;;25.20;64.54
26823;BME280;14852;51.910;8.878;2023-08-20T01:04:36;100268.16;;;25.19;64.50
26823;BME280;14852;51.910;8.878;2023-08-20T01:07:30;100279.16;;;25.24;64.28
26823;BME280;14852;51.910;8.878;2023-08-20T01:12:43;100284.63;;;25.23;64.43
26823;BME280;14852;51.910;8.878;2023-08-20T01:15:11;100281.13;;;25.22;64.25
26823;BME280;14852;51.910;8.878;2023-08-20T01:17:41;100269.34;;;25.25;63.96
26823;BME280;14852;51.910;8.878;2023-08-20T01:20:09;100272.84;;;25.25;64.05
26823;BME280;14852;51.910;8.878;2023-08-20T01:26:25;100274.16;;;25.30;63.58
26823;BME280;14852;51.910;8.878;2023-08-20T01:28:58;100280.00;;;25.25;63.86
26823;BME280;14852;51.910;8.878;2023-08-20T01:31:25;100280.00;;;25.25;63.95
26823;BME280;14852;51.910;8.878;2023-08-20T01:33:52;100283.47;;;25.25;64.43
26823;BME280;14852;51.910;8.878;2023-08-20T01:36:20;100282.66;;;25.25;64.41
26823;BME280;14852;51.910;8.878;2023-08-20T01:38:47;100286.97;;;25.26;64.03
26823;BME280;14852;51.910;8.878;2023-08-20T01:41:15;100280.81;;;25.25;64.27
26823;BME280;14852;51.910;8.878;2023-08-20T01:43:41;100283.47;;;25.25;64.41
26823;BME280;14852;51.910;8.878;2023-08-20T01:46:07;100286.78;;;25.19;64.72
26823;BME280;14852;51.910;8.878;2023-08-20T01:48:33;100292.22;;;25.10;64.51
26823;BME280;14852;51.910;8.878;2023-08-20T01:50:59;100297.00;;;24.98;64.65
26823;BME280;14852;51.910;8.878;2023-08-20T01:53:24;100294.44;;;24.88;64.44
26823;BME280;14852;51.910;8.878;2023-08-20T01:55:50;100286.91;;;24.76;63.85
26823;BME280;14852;51.910;8.878;2023-08-20T01:58:16;100280.19;;;24.64;64.16
26823;BME280;14852;51.910;8.878;2023-08-20T02:00:42;100273.84;;;24.57;64.22
26823;BME280;14852;51.910;8.878;2023-08-20T02:03:07;100284.63;;;24.55;63.54
26823;BME280;14852;51.910;8.878;2023-08-20T02:05:33;100277.78;;;24.52;63.71
26823;BME280;14852;51.910;8.878;2023-08-20T02:07:59;100275.13;;;24.52;63.67
26823;BME280;14852;51.910;8.878;2023-08-20T02:10:25;100280.75;;;24.49;63.63
26823;BME280;14852;51.910;8.878;2023-08-20T02:12:50;100277.59;;;24.46;63.46
26823;BME280;14852;51.910;8.878;2023-08-20T02:15:16;100278.91;;;24.42;63.16
26823;BME280;14852;51.910;8.878;2023-08-20T02:17:42;100278.66;;;24.35;63.26
26823;BME280;14852;51.910;8.878;2023-08-20T02:20:08;100272.19;;;24.30;63.58
26823;BME280;14852;51.910;8.878;2023-08-20T02:22:36;100268.75;;;24.19;63.80
26823;BME280;14852;51.910;8.878;2023-08-20T02:25:01;100265.88;;;24.13;63.55
26823;BME280;14852;51.910;8.878;2023-08-20T02:27:27;100272.66;;;24.07;63.84
26823;BME280;14852;51.910;8.878;2023-08-20T02:29:53;100267.94;;;24.01;63.62
26823;BME280;14852;51.910;8.878;2023-08-20T02:32:19;100261.97;;;23.99;63.53
26823;BME280;14852;51.910;8.878;2023-08-20T02:34:49;100266.59;;;23.97;63.66
26823;BME280;14852;51.910;8.878;2023-08-20T02:37:16;100273.03;;;23.95;63.67
26823;BME280;14852;51.910;8.878;2023-08-20T02:39:42;100267.19;;;23.91;63.37
26823;BME280;14852;51.910;8.878;2023-08-20T02:42:08;100276.16;;;23.90;63.72
26823;BME280;14852;51.910;8.878;2023-08-20T02:44:34;100272.97;;;23.87;63.11
26823;BME280;14852;51.910;8.878;2023-08-20T02:47:00;100278.19;;;23.78;63.25
26823;BME280;14852;51.910;8.878;2023-08-20T02:49:25;100281.09;;;23.67;63.36
26823;BME280;14852;51.910;8.878;2023-08-20T02:51:51;100289.13;;;23.58;63.75
26823;BME280;14852;51.910;8.878;2023-08-20T02:54:17;100294.22;;;23.51;63.43
26823;BME280;14852;51.910;8.878;2023-08-20T02:56:43;100299.78;;;23.48;63.54
26823;BME280;14852;51.910;8.878;2023-08-20T02:59:09;100296.28;;;23.47;63.73
26823;BME280;14852;51.910;8.878;2023-08-20T03:01:34;100292.25;;;23.43;63.71
26823;BME280;14852;51.910;8.878;2023-08-20T03:04:01;100295.22;;;23.40;63.31
26823;BME280;14852;51.910;8.878;2023-08-20T03:06:27;100291.34;;;23.35;63.87
26823;BME280;14852;51.910;8.878;2023-08-20T03:08:53;100294.81;;;23.35;63.85
26823;BME280;14852;51.910;8.878;2023-08-20T03:11:18;100290.50;;;23.34;63.35
26823;BME280;14852;51.910;8.878;2023-08-20T03:13:45;100299.44;;;23.33;63.34
26823;BME280;14852;51.910;8.878;2023-08-20T03:16:11;100299.56;;;23.32;63.63
26823;BME280;14852;51.910;8.878;2023-08-20T03:18:37;100299.44;;;23.33;63.21
26823;BME280;14852;51.910;8.878;2023-08-20T03:21:02;100306.25;;;23.36;63.41
26823;BME280;14852;51.910;8.878;2023-08-20T03:23:29;100298.84;;;23.39;63.22
26823;BME280;14852;51.910;8.878;2023-08-20T03:25:58;100305.84;;;23.40;63.16
26823;BME280;14852;51.910;8.878;2023-08-20T03:28:24;100305.72;;;23.32;63.36
26823;BME280;14852;51.910;8.878;2023-08-20T03:30:50;100314.44;;;23.25;63.63
26823;BME280;14852;51.910;8.878;2023-08-20T03:33:18;100304.84;;;23.14;63.55
26823;BME280;14852;51.910;8.878;2023-08-20T03:35:45;100317.88;;;23.07;64.46
26823;BME280;14852;51.910;8.878;2023-08-20T03:38:11;100305.34;;;23.00;64.15
26823;BME280;14852;51.910;8.878;2023-08-20T03:40:37;100312.44;;;22.99;64.02
26823;BME280;14852;51.910;8.878;2023-08-20T03:43:03;100313.69;;;23.05;63.92
26823;BME280;14852;51.910;8.878;2023-08-20T03:45:30;100313.09;;;23.11;63.91
26823;BME280;14852;51.910;8.878;2023-08-20T03:47:56;100314.19;;;23.18;63.53
26823;BME280;14852;51.910;8.878;2023-08-20T03:50:22;100311.09;;;23.23;63.74
26823;BME280;14852;51.910;8.878;2023-08-20T03:52:48;100308.16;;;23.26;63.45
26823;BME280;14852;51.910;8.878;2023-08-20T03:55:13;100316.38;;;23.23;63.57
26823;BME280;14852;51.910;8.878;2023-08-20T03:57:39;100323.66;;;23.21;63.48
26823;BME280;14852;51.910;8.878;2023-08-20T04:00:07;100319.50;;;23.18;64.01
26823;BME280;14852;51.910;8.878;2023-08-20T04:02:40;100329.94;;;23.20;63.96
26823;BME280;14852;51.910;8.878;2023-08-20T04:05:06;100333.13;;;23.23;63.91
26823;BME280;14852;51.910;8.878;2023-08-20T04:07:32;100336.31;;;23.27;63.55
26823;BME280;14852;51.910;8.878;2023-08-20T04:09:59;100337.16;;;23.27;64.02
26823;BME280;14852;51.910;8.878;2023-08-20T04:12:25;100346.47;;;23.31;63.93
26823;BME280;14852;51.910;8.878;2023-08-20T04:14:51;100333.75;;;23.35;63.65
26823;BME280;14852;51.910;8.878;2023-08-20T04:17:16;100340.59;;;23.37;63.89
26823;BME280;14852;51.910;8.878;2023-08-20T04:19:42;100343.78;;;23.41;63.44
26823;BME280;14852;51.910;8.878;2023-08-20T04:22:08;100349.94;;;23.41;63.51
26823;BME280;14852;51.910;8.878;2023-08-20T04:24:34;100361.38;;;23.42;63.54
26823;BME280;14852;51.910;8.878;2023-08-20T04:26:59;100356.72;;;23.44;64.04
26823;BME280;14852;51.910;8.878;2023-08-20T04:29:28;100360.91;;;23.46;64.14
26823;BME280;14852;51.910;8.878;2023-08-20T04:31:54;100355.63;;;23.46;63.68
26823;BME280;14852;51.910;8.878;2023-08-20T04:34:20;100354.78;;;23.46;63.87
26823;BME280;14852;51.910;8.878;2023-08-20T04:36:50;100360.09;;;23.46;63.70
26823;BME280;14852;51.910;8.878;2023-08-20T04:39:18;100368.72;;;23.48;64.00
26823;BME280;14852;51.910;8.878;2023-08-20T04:41:48;100368.72;;;23.48;63.72
26823;BME280;14852;51.910;8.878;2023-08-20T04:44:16;100365.69;;;23.53;63.76
26823;BME280;14852;51.910;8.878;2023-08-20T04:46:43;100358.38;;;23.55;63.62
26823;BME280;14852;51.910;8.878;2023-08-20T04:49:09;100362.56;;;23.57;64.01
26823;BME280;14852;51.910;8.878;2023-08-20T04:51:37;100372.47;;;23.55;64.21
26823;BME280;14852;51.910;8.878;2023-08-20T04:54:03;100366.22;;;23.46;64.12
26823;BME280;14852;51.910;8.878;2023-08-20T04:56:29;100378.28;;;23.41;63.97
26823;BME280;14852;51.910;8.878;2023-08-20T04:58:55;100374.38;;;23.35;64.21
26823;BME280;14852;51.910;8.878;2023-08-20T05:01:44;100369.69;;;23.29;64.85
26823;BME280;14852;51.910;8.878;2023-08-20T05:04:11;100371.09;;;23.24;64.46
26823;BME280;14852;51.910;8.878;2023-08-20T05:06:37;100370.09;;;23.25;65.11
26823;BME280;14852;51.910;8.878;2023-08-20T05:09:03;100366.72;;;23.32;64.50
26823;BME280;14852;51.910;8.878;2023-08-20T05:11:29;100363.19;;;23.41;64.34
26823;BME280;14852;51.910;8.878;2023-08-20T05:13:57;100371.66;;;23.55;64.48
26823;BME280;14852;51.910;8.878;2023-08-20T05:16:23;100376.44;;;23.69;63.65
26823;BME280;14852;51.910;8.878;2023-08-20T05:18:50;100376.56;;;24.12;63.22
26823;BME280;14852;51.910;8.878;2023-08-20T05:21:16;100368.56;;;24.66;62.15
26823;BME280;14852;51.910;8.878;2023-08-20T05:23:41;100378.72;;;25.22;60.35
26823;BME280;14852;51.910;8.878;2023-08-20T05:26:07;100359.16;;;25.39;59.99
26823;BME280;14852;51.910;8.878;2023-08-20T05:28:34;100357.31;;;25.32;59.68
26823;BME280;14852;51.910;8.878;2023-08-20T05:31:00;100369.91;;;25.21;59.95
26823;BME280;14852;51.910;8.878;2023-08-20T05:33:26;100375.38;;;25.20;60.50
26823;BME280;14852;51.910;8.878;2023-08-20T05:35:53;100377.63;;;25.41;60.54
26823;BME280;14852;51.910;8.878;2023-08-20T05:38:20;100366.28;;;25.39;60.43
26823;BME280;14852;51.910;8.878;2023-08-20T05:40:48;100373.06;;;25.25;61.07
26823;BME280;14852;51.910;8.878;2023-08-20T05:43:14;100360.38;;;25.11;61.26
26823;BME280;14852;51.910;8.878;2023-08-20T05:45:40;100352.38;;;25.03;61.43
26823;BME280;14852;51.910;8.878;2023-08-20T05:48:08;100363.72;;;25.13;61.22
26823;BME280;14852;51.910;8.878;2023-08-20T05:50:33;100363.63;;;25.39;60.88
26823;BME280;14852;51.910;8.878;2023-08-20T05:53:00;100352.31;;;25.71;60.14
26823;BME280;14852;51.910;8.878;2023-08-20T05:55:27;100352.34;;;25.95;59.56
26823;BME280;14852;51.910;8.878;2023-08-20T05:57:54;100369.03;;;26.29;58.21
26823;BME280;14852;51.910;8.878;2023-08-20T06:00:20;100375.16;;;26.71;57.31
26823;BME280;14852;51.910;8.878;2023-08-20T06:02:47;100370.47;;;27.36;55.82
26823;BME280;14852;51.910;8.878;2023-08-20T06:05:13;100357.97;;;27.98;54.71
26823;BME280;14852;51.910;8.878;2023-08-20T06:07:39;100361.13;;;28.48;53.05
26823;BME280;14852;51.910;8.878;2023-08-20T06:10:07;100358.97;;;29.10;52.30
26823;BME280;14852;51.910;8.878;2023-08-20T06:12:33;100349.94;;;29.76;50.59
26823;BME280;14852;51.910;8.878;2023-08-20T06:14:59;100334.84;;;30.39;48.97
26823;BME280;14852;51.910;8.878;2023-08-20T06:17:25;100337.16;;;31.05;48.29
26823;BME280;14852;51.910;8.878;2023-08-20T06:19:51;100332.72;;;31.73;46.58
26823;BME280;14852;51.910;8.878;2023-08-20T06:22:16;100317.25;;;32.08;45.68
26823;BME280;14852;51.910;8.878;2023-08-20T06:24:42;100316.66;;;32.38;44.84
26823;BME280;14852;51.910;8.878;2023-08-20T06:27:08;100336.66;;;32.95;43.71
26823;BME280;14852;51.910;8.878;2023-08-20T06:29:34;100344.81;;;33.71;43.00
26823;BME280;14852;51.910;8.878;2023-08-20T06:31:59;100344.22;;;34.57;40.90
26823;BME280;14852;51.910;8.878;2023-08-20T06:34:25;100341.50;;;34.82;40.81
26823;BME280;14852;51.910;8.878;2023-08-20T06:36:52;100344.31;;;35.23;40.36
26823;BME280;14852;51.910;8.878;2023-08-20T06:39:18;100345.56;;;35.57;39.98
26823;BME280;14852;51.910;8.878;2023-08-20T06:41:45;100354.03;;;35.91;39.13
26823;BME280;14852;51.910;8.878;2023-08-20T06:44:19;100342.81;;;36.17;38.73
26823;BME280;14852;51.910;8.878;2023-08-20T06:46:45;100341.91;;;36.35;38.62
26823;BME280;14852;51.910;8.878;2023-08-20T06:49:10;100341.34;;;36.45;38.28
26823;BME280;14852;51.910;8.878;2023-08-20T06:51:36;100343.78;;;36.58;37.88
26823;BME280;14852;51.910;8.878;2023-08-20T06:54:03;100343.44;;;36.66;37.68
26823;BME280;14852;51.910;8.878;2023-08-20T06:56:32;100342.81;;;36.17;38.11
26823;BME280;14852;51.910;8.878;2023-08-20T06:58:58;100359.31;;;34.40;40.79
26823;BME280;14852;51.910;8.878;2023-08-20T07:01:24;100366.84;;;33.04;43.28
26823;BME280;14852;51.910;8.878;2023-08-20T07:03:49;100370.59;;;32.11;45.03
26823;BME280;14852;51.910;8.878;2023-08-20T07:06:15;100366.38;;;31.21;47.22
26823;BME280;14852;51.910;8.878;2023-08-20T07:08:44;100368.28;;;31.81;45.50
26823;BME280;14852;51.910;8.878;2023-08-20T07:11:10;100363.75;;;33.07;43.29
26823;BME280;14852;51.910;8.878;2023-08-20T07:13:36;100357.78;;;34.26;40.50
26823;BME280;14852;51.910;8.878;2023-08-20T07:16:02;100349.00;;;34.80;39.59
26823;BME280;14852;51.910;8.878;2023-08-20T07:18:28;100344.50;;;34.92;38.95
26823;BME280;14852;51.910;8.878;2023-08-20T07:20:55;100351.66;;;34.05;40.06
26823;BME280;14852;51.910;8.878;2023-08-20T07:23:21;100350.56;;;32.79;42.12
26823;BME280;14852;51.910;8.878;2023-08-20T07:25:47;100353.88;;;32.48;43.27
26823;BME280;14852;51.910;8.878;2023-08-20T07:28:14;100353.22;;;32.66;42.45
26823;BME280;14852;51.910;8.878;2023-08-20T07:30:40;100337.72;;;32.55;42.87
26823;BME280;14852;51.910;8.878;2023-08-20T07:33:06;100352.00;;;32.68;42.38
26823;BME280;14852;51.910;8.878;2023-08-20T07:35:33;100345.00;;;33.45;40.96
26823;BME280;14852;51.910;8.878;2023-08-20T07:37:59;100341.13;;;34.54;38.88
26823;BME280;14852;51.910;8.878;2023-08-20T07:40:24;100344.13;;;35.55;37.15
26823;BME280;14852;51.910;8.878;2023-08-20T07:42:51;100338.28;;;36.30;36.07
26823;BME280;14852;51.910;8.878;2023-08-20T07:45:17;100329.09;;;36.77;35.20
26823;BME280;14852;51.910;8.878;2023-08-20T07:47:42;100325.78;;;36.87;35.10
26823;BME280;14852;51.910;8.878;2023-08-20T07:50:09;100339.63;;;37.25;34.98
26823;BME280;14852;51.910;8.878;2023-08-20T07:52:35;100332.88;;;37.85;34.04
26823;BME280;14852;51.910;8.878;2023-08-20T07:55:00;100322.97;;;38.24;33.73
26823;BME280;14852;51.910;8.878;2023-08-20T07:57:26;100331.75;;;38.48;33.03
26823;BME280;14852;51.910;8.878;2023-08-20T07:59:52;100338.06;;;38.70;33.24
26823;BME280;14852;51.910;8.878;2023-08-20T08:02:18;100329.09;;;38.91;32.90
26823;BME280;14852;51.910;8.878;2023-08-20T08:04:44;100333.81;;;39.18;32.71
26823;BME280;14852;51.910;8.878;2023-08-20T08:07:10;100335.53;;;39.02;32.16
26823;BME280;14852;51.910;8.878;2023-08-20T08:09:36;100339.94;;;38.86;32.46
26823;BME280;14852;51.910;8.878;2023-08-20T08:12:04;100337.38;;;38.80;32.74
26823;BME280;14852;51.910;8.878;2023-08-20T08:14:30;100338.56;;;38.89;32.90
26823;BME280;14852;51.910;8.878;2023-08-20T08:16:56;100334.16;;;38.99;32.28
26823;BME280;14852;51.910;8.878;2023-08-20T08:19:22;100334.97;;;39.22;32.31
26823;BME280;14852;51.910;8.878;2023-08-20T08:21:48;100333.84;;;39.71;31.36
26823;BME280;14852;51.910;8.878;2023-08-20T08:24:15;100340.53;;;39.59;31.35
26823;BME280;14852;51.910;8.878;2023-08-20T08:26:41;100337.38;;;39.67;31.31
26823;BME280;14852;51.910;8.878;2023-08-20T08:29:07;100335.56;;;39.77;31.10
26823;BME280;14852;51.910;8.878;2023-08-20T08:31:34;100335.53;;;39.45;31.12
26823;BME280;14852;51.910;8.878;2023-08-20T08:34:01;100330.72;;;39.31;31.28
26823;BME280;14852;51.910;8.878;2023-08-20T08:36:28;100331.84;;;39.13;31.73
26823;BME280;14852;51.910;8.878;2023-08-20T08:38:54;100334.28;;;39.36;31.15
26823;BME280;14852;51.910;8.878;2023-08-20T08:41:23;100330.19;;;39.56;31.17
26823;BME280;14852;51.910;8.878;2023-08-20T08:43:50;100337.22;;;39.30;31.46
26823;BME280;14852;51.910;8.878;2023-08-20T08:46:16;100325.66;;;38.96;31.74
26823;BME280;14852;51.910;8.878;2023-08-20T08:48:44;100329.09;;;38.69;32.24
26823;BME280;14852;51.910;8.878;2023-08-20T08:51:12;100330.53;;;38.77;32.03
26823;BME280;14852;51.910;8.878;2023-08-20T08:53:39;100336.75;;;38.72;32.12
26823;BME280;14852;51.910;8.878;2023-08-20T08:56:07;100346.81;;;38.05;33.74
26823;BME280;14852;51.910;8.878;2023-08-20T08:58:33;100343.72;;;37.28;34.61
26823;BME280;14852;51.910;8.878;2023-08-20T09:00:59;100338.00;;;36.19;36.03
26823;BME280;14852;51.910;8.878;2023-08-20T09:03:25;100342.59;;;35.47;37.97
26823;BME280;14852;51.910;8.878;2023-08-20T09:06:01;100347.03;;;35.42;38.58
26823;BME280;14852;51.910;8.878;2023-08-20T09:08:32;100343.72;;;35.21;38.15
26823;BME280;14852;51.910;8.878;2023-08-20T09:11:00;100338.88;;;34.94;38.62
26823;BME280;14852;51.910;8.878;2023-08-20T09:13:35;100340.78;;;34.68;39.17
26823;BME280;14852;51.910;8.878;2023-08-20T09:16:07;100345.78;;;34.46;39.06
26823;BME280;14852;51.910;8.878;2023-08-20T09:18:40;100343.19;;;34.33;40.46
26823;BME280;14852;51.910;8.878;2023-08-20T09:21:08;100349.56;;;34.14;40.06
26823;BME280;14852;51.910;8.878;2023-08-20T09:23:34;100347.66;;;33.90;39.68
26823;BME280;14852;51.910;8.878;2023-08-20T09:26:03;100349.53;;;33.89;40.59
26823;BME280;14852;51.910;8.878;2023-08-20T09:28:42;100343.66;;;34.24;40.11
26823;BME280;14852;51.910;8.878;2023-08-20T09:31:08;100340.97;;;34.48;39.42
26823;BME280;14852;51.910;8.878;2023-08-20T09:33:34;100339.03;;;34.80;39.43
26823;BME280;14852;51.910;8.878;2023-08-20T09:36:00;100342.53;;;34.99;38.50
26823;BME280;14852;51.910;8.878;2023-08-20T09:38:28;100339.97;;;35.22;37.83
26823;BME280;14852;51.910;8.878;2023-08-20T09:40:54;100336.34;;;35.47;37.20
26823;BME280;14852;51.910;8.878;2023-08-20T09:43:24;100331.94;;;35.52;37.00
26823;BME280;14852;51.910;8.878;2023-08-20T09:45:55;100331.81;;;35.59;36.64
26823;BME280;14852;51.910;8.878;2023-08-20T09:48:22;100335.09;;;35.79;36.23
26823;BME280;14852;51.910;8.878;2023-08-20T09:50:51;100332.41;;;35.91;36.24
26823;BME280;14852;51.910;8.878;2023-08-20T09:53:37;100331.44;;;35.55;36.45
26823;BME280;14852;51.910;8.878;2023-08-20T09:58:51;100337.22;;;35.11;37.72
26823;BME280;14852;51.910;8.878;2023-08-20T10:01:17;100337.81;;;35.13;35.78
26823;BME280;14852;51.910;8.878;2023-08-20T10:03:44;100327.09;;;35.06;35.78
26823;BME280;14852;51.910;8.878;2023-08-20T10:06:11;100329.44;;;34.84;35.94
26823;BME280;14852;51.910;8.878;2023-08-20T10:08:38;100322.66;;;34.50;36.17
26823;BME280;14852;51.910;8.878;2023-08-20T10:11:04;100331.63;;;34.26;36.70
26823;BME280;14852;51.910;8.878;2023-08-20T10:13:30;100335.69;;;34.04;36.63
26823;BME280;14852;51.910;8.878;2023-08-20T10:15:56;100341.50;;;33.76;36.41
26823;BME280;14852;51.910;8.878;2023-08-20T10:18:22;100352.47;;;33.74;36.38
26823;BME280;14852;51.910;8.878;2023-08-20T10:20:51;100339.81;;;34.13;36.17
26823;BME280;14852;51.910;8.878;2023-08-20T10:23:21;100340.81;;;34.62;35.42
26823;BME280;14852;51.910;8.878;2023-08-20T10:25:52;100340.28;;;34.96;35.07
26823;BME280;14852;51.910;8.878;2023-08-20T10:28:27;100327.00;;;35.13;34.91
26823;BME280;14852;51.910;8.878;2023-08-20T10:31:13;100332.50;;;34.88;34.88
26823;BME280;14852;51.910;8.878;2023-08-20T10:33:55;100327.19;;;34.57;35.50
26823;BME280;14852;51.910;8.878;2023-08-20T10:36:23;100326.97;;;34.58;35.58
26823;BME280;14852;51.910;8.878;2023-08-20T10:38:55;100326.06;;;34.64;35.46
26823;BME280;14852;51.910;8.878;2023-08-20T10:41:26;100333.47;;;34.50;35.42
26823;BME280;14852;51.910;8.878;2023-08-20T10:43:52;100337.03;;;34.26;35.87
26823;BME280;14852;51.910;8.878;2023-08-20T10:46:27;100333.25;;;34.27;35.78
26823;BME280;14852;51.910;8.878;2023-08-20T10:49:01;100336.72;;;34.09;36.25
26823;BME280;14852;51.910;8.878;2023-08-20T10:51:37;100330.44;;;33.91;36.11
26823;BME280;14852;51.910;8.878;2023-08-20T10:54:06;100340.41;;;33.84;36.30
26823;BME280;14852;51.910;8.878;2023-08-20T10:56:55;100331.13;;;34.04;36.12
26823;BME280;14852;51.910;8.878;2023-08-20T10:59:29;100331.53;;;34.08;36.12
26823;BME280;14852;51.910;8.878;2023-08-20T11:01:59;100328.88;;;34.33;35.68
26823;BME280;14852;51.910;8.878;2023-08-20T11:04:30;100330.19;;;34.67;35.21
26823;BME280;14852;51.910;8.878;2023-08-20T11:07:00;100326.88;;;34.90;35.56
26823;BME280;14852;51.910;8.878;2023-08-20T11:09:30;100322.28;;;35.27;35.24
26823;BME280;14852;51.910;8.878;2023-08-20T11:11:57;100316.75;;;35.51;34.13
26823;BME280;14852;51.910;8.878;2023-08-20T11:14:24;100310.00;;;35.42;34.23
26823;BME280;14852;51.910;8.878;2023-08-20T11:16:50;100316.00;;;35.44;34.65
26823;BME280;14852;51.910;8.878;2023-08-20T11:19:22;100317.72;;;35.57;34.11
26823;BME280;14852;51.910;8.878;2023-08-20T11:21:48;100325.59;;;35.58;34.70
26823;BME280;14852;51.910;8.878;2023-08-20T11:24:14;100320.34;;;35.64;34.63
26823;BME280;14852;51.910;8.878;2023-08-20T11:26:41;100322.94;;;35.70;34.28
26823;BME280;14852;51.910;8.878;2023-08-20T11:29:09;100332.91;;;35.70;33.96
26823;BME280;14852;51.910;8.878;2023-08-20T11:31:37;100328.66;;;35.32;34.64
26823;BME280;14852;51.910;8.878;2023-08-20T11:34:04;100332.41;;;35.13;34.75
26823;BME280;14852;51.910;8.878;2023-08-20T11:36:30;100330.53;;;35.13;34.94
26823;BME280;14852;51.910;8.878;2023-08-20T11:38:56;100328.66;;;35.32;34.31
26823;BME280;14852;51.910;8.878;2023-08-20T11:41:24;100328.84;;;35.49;34.19
26823;BME280;14852;51.910;8.878;2023-08-20T11:43:52;100329.88;;;35.18;34.00
26823;BME280;14852;51.910;8.878;2023-08-20T11:46:23;100327.00;;;34.76;34.73
26823;BME280;14852;51.910;8.878;2023-08-20T11:49:02;100329.34;;;34.48;35.42
26823;BME280;14852;51.910;8.878;2023-08-20T11:51:29;100336.06;;;34.39;35.37
26823;BME280;14852;51.910;8.878;2023-08-20T11:53:58;100329.63;;;34.40;35.21
26823;BME280;14852;51.910;8.878;2023-08-20T11:56:24;100335.69;;;34.35;34.98
26823;BME280;14852;51.910;8.878;2023-08-20T11:58:52;100324.94;;;34.29;35.53
26823;BME280;14852;51.910;8.878;2023-08-20T12:01:21;100321.03;;;34.25;35.35
26823;BME280;14852;51.910;8.878;2023-08-20T12:03:46;100320.94;;;34.13;35.52
26823;BME280;14852;51.910;8.878;2023-08-20T12:06:22;100326.66;;;34.23;35.75
26823;BME280;14852;51.910;8.878;2023-08-20T12:08:54;100325.63;;;34.17;35.45
26823;BME280;14852;51.910;8.878;2023-08-20T12:11:27;100329.94;;;34.00;35.59
26823;BME280;14852;51.910;8.878;2023-08-20T12:13:54;100327.59;;;33.79;35.56
26823;BME280;14852;51.910;8.878;2023-08-20T12:16:24;100316.56;;;33.87;36.00
26823;BME280;14852;51.910;8.878;2023-08-20T12:18:51;100314.81;;;33.99;35.72
26823;BME280;14852;51.910;8.878;2023-08-20T12:21:18;100303.09;;;34.12;35.57
26823;BME280;14852;51.910;8.878;2023-08-20T12:23:44;100302.41;;;34.41;35.02
26823;BME280;14852;51.910;8.878;2023-08-20T12:26:09;100287.75;;;34.37;34.86
26823;BME280;14852;51.910;8.878;2023-08-20T12:28:35;100288.72;;;34.43;34.59
26823;BME280;14852;51.910;8.878;2023-08-20T12:31:01;100292.97;;;34.50;35.10
26823;BME280;14852;51.910;8.878;2023-08-20T12:33:28;100299.00;;;34.53;34.64
26823;BME280;14852;51.910;8.878;2023-08-20T12:35:55;100301.03;;;34.57;34.72
26823;BME280;14852;51.910;8.878;2023-08-20T12:38:21;100297.06;;;34.60;34.59
26823;BME280;14852;51.910;8.878;2023-08-20T12:40:47;100298.63;;;34.67;34.92
26823;BME280;14852;51.910;8.878;2023-08-20T12:43:13;100294.88;;;34.68;35.04
26823;BME280;14852;51.910;8.878;2023-08-20T12:45:39;100291.97;;;34.70;34.64
26823;BME280;14852;51.910;8.878;2023-08-20T12:48:06;100293.63;;;34.71;34.35
26823;BME280;14852;51.910;8.878;2023-08-20T12:50:33;100291.53;;;34.73;34.54
26823;BME280;14852;51.910;8.878;2023-08-20T12:52:59;100293.16;;;34.74;34.44
26823;BME280;14852;51.910;8.878;2023-08-20T12:55:24;100295.28;;;34.72;34.70
26823;BME280;14852;51.910;8.878;2023-08-20T12:57:58;100297.97;;;34.72;34.80
26823;BME280;14852;51.910;8.878;2023-08-20T13:00:26;100292.28;;;34.80;34.65